KPOB/POB METAR and TAF weather

Enter ICAO airport designator
Station Type Date Time Source
KPOB METAR 2019/12/08 00:56 UTC NOAA

KPOB 080056Z AUTO 06004KT 10SM CLR 03/00 A3038 RMK AO2 SLP292 T00340001 $


Station Type Date Time Source
KPOB Decoded METAR 2019/12/08 00:56 UTC NOAA

Pope Air Force Base, NC, United States (KPOB) 35-10N 079-02W 61M
Dec 07, 2019 - 07:56 PM EST / 2019.12.08 0056 UTC
Wind: from the ENE (060 degrees) at 5 MPH (4 KT):0
Visibility: 10 mile(s):0
Sky conditions: clear
Temperature: 38.1 F (3.4 C)
Dew Point: 32.2 F (0.1 C)
Relative Humidity: 78%
Pressure (altimeter): 30.38 in. Hg (1028 hPa)
ob: KPOB 080056Z AUTO 06004KT 10SM CLR 03/00 A3038 RMK AO2 SLP292 T00340001
cycle: 1

Station Type Date Time Source
KPOB TAF 2019/12/07 18:05 UTC NOAA

TAF KPOB 071800Z 0718/0824 06012G18KT 9999 SCT040 QNH3029INS
BECMG 0802/0803 04006KT 9999 FEW060 QNH3031INS
BECMG 0819/0820 02006KT 9999 BKN050 QNH3030INS TX13/0719Z TN01/0812Z

Example: see airport list